スカルノハッタ国際空港の過去48時間の天気

スカルノハッタ国際空港 (Jakarta / Soekarno-Hatta)

現在時刻: 9/17 18:23 WIB (9/17 11:23 UTC) 以下の時間は現地時間です。

過去48時間のMETAR気象情報
時間 風向 風速(m/s) 視程 気温(℃) 湿度(%) 気圧(hPa) 天気現象
17 18:00 東北東 6 7000m 28 79 1010
17 17:30 東北東 6 8000m 29 70 1010
17 17:00 東北東 7 9000m 29 70 1009
17 16:30 東北東 7 9000m 30 66 1009
17 16:00 北東 8 9000m 31 59 1009
17 15:30 北東 8 9000m 31 62 1009
17 15:00 北東 7 9000m 32 56 1009
17 14:30 北東 6 9000m 32 59 1009
17 14:00 東北東 6 8000m 32 56 1009
17 13:30 東北東 6 8000m 32 56 1009
17 13:00 東北東 7 8000m 32 59 1010
17 12:30 東北東 7 7000m 32 56 1010
17 12:00 東北東 6 7000m 32 56 1011
17 11:30 東北東 6 7000m 32 59 1011
17 11:00 東北東 6 7000m 31 59 1012
17 10:30 東北東 6 7000m 31 59 1012
17 10:00 東北東 6 7000m 31 59 1013
17 09:30 4 7000m 31 59 1013
17 09:00 3 6000m 29 66 1013
17 08:30 3 4500m 29 66 1013 煙霧
17 08:00 南東 3 4000m 28 70 1013 煙霧
17 07:30 3 4000m 27 74 1013 煙霧
17 07:00 3 4000m 26 79 1012 煙霧
17 06:30 不定 2 5000m 26 79 1012 煙霧
17 06:00 不定 2 5000m 26 79 1011 煙霧
17 05:30 東南東 3 5000m 26 79 1011 煙霧
17 05:00 東南東 3 5000m 26 79 1011 煙霧
17 04:30 2 6000m 25 83 1011
17 04:00 南東 2 6000m 25 83 1011
17 03:30 南東 3 6000m 26 79 1010
17 03:00 南東 3 6000m 26 79 1010
17 02:30 不定 2 6000m 26 79 1010
17 02:00 南南東 2 6000m 26 79 1010
17 01:30 東南東 4 6000m 26 79 1010
17 01:00 東南東 4 6000m 26 79 1011
17 00:30 東南東 4 6000m 26 79 1011
17 00:00 東南東 5 7000m 26 79 1011
16 23:30 東南東 4 7000m 27 74 1011
16 23:00 東南東 4 7000m 27 74 1012
16 22:30 東南東 5 7000m 27 74 1011
16 22:00 東南東 5 7000m 27 74 1011
16 21:30 東南東 5 7000m 27 74 1011
16 21:00 東南東 4 7000m 27 74 1011
16 20:30 5 7000m 27 74 1011
16 20:00 5 7000m 27 74 1010
16 19:30 7 7000m 27 74 1010
16 19:00 6 7000m 27 79 1010
16 18:30 東北東 6 7000m 28 74 1009
16 18:00 東北東 6 7000m 28 74 1009
16 17:30 東北東 7 7000m 29 70 1008
16 17:00 東北東 6 6000m 29 70 1008
16 16:30 東北東 7 7000m 30 66 1008
16 16:00 東北東 7 7000m 31 59 1008
16 15:30 東北東 8 9000m 31 59 1008
16 15:00 東北東 9 8000m 32 56 1008
16 14:30 北東 9 8000m 32 56 1008
16 14:00 北東 9 8000m 32 59 1008
16 13:30 東北東 7 8000m 32 59 1009
16 13:00 東北東 8 8000m 32 59 1009
16 12:30 北東 7 8000m 32 59 1010
16 12:00 東北東 6 8000m 32 59 1010
16 11:30 東北東 6 8000m 32 56 1010
16 11:00 東北東 6 7000m 32 56 1011
16 10:30 東北東 3 7000m 31 59 1011
16 10:00 4 6000m 30 62 1012
16 09:30 3 5000m 30 62 1012 煙霧
16 09:00 5 5000m 29 70 1012 煙霧
16 08:30 不定 2 5000m 28 70 1012 煙霧
16 08:00 不定 2 5000m 28 70 1012 煙霧
16 07:30 不定 2 5000m 27 79 1011 煙霧
16 07:00 南南東 3 3500m 26 84 1011 もや
16 06:30 不定 2 3500m 25 83 1011 もや
16 06:00 3 3500m 24 89 1011 もや
16 05:30 4 4000m 24 89 1011 もや
16 05:00 2 4000m 25 83 1011 もや
16 04:30 南南東 3 5000m 25 83 1010
16 04:00 南南西 2 5000m 24 89 1010 弱い雨
16 03:30 不定 2 5000m 25 83 1010 弱い雨
16 03:00 不定 2 5000m 25 83 1010 弱い雨
16 02:30 3 3600m 25 83 1010 弱い雨
16 02:00 南南西 3 3000m 25 89 1010
16 01:30 静穏 0 3000m 25 89 1010
16 01:00 3 3500m 26 84 1010 弱い雨
16 00:30 西南西 1 4400m 27 70 1011 煙霧
16 00:00 不定 1 4600m 27 70 1011 煙霧
15 23:30 不定 1 4500m 27 74 1011 煙霧
15 23:00 西北西 2 4500m 27 74 1011 煙霧
15 22:30 北西 2 5000m 26 79 1011 煙霧
15 21:30 西北西 2 5000m 26 74 1011 煙霧
15 21:00 西北西 2 5000m 26 74 1011 煙霧
15 20:30 西 1 6000m 27 74 1011
15 20:00 北西 1 6000m 28 70 1011
15 19:30 不定 2 6000m 28 70 1010
15 19:00 北北東 2 7000m 28 70 1010
15 18:30 北東 3 8000m 28 70 1010
WIII 171100Z 06011KT 7000 FEW020 28/24 Q1010 NOSIG
WIII 171030Z 06011KT 8000 FEW020 29/23 Q1010 NOSIG
WIII 171000Z 06013KT 9000 FEW020 29/23 Q1009 NOSIG
WIII 170930Z 06013KT 9000 FEW020 30/23 Q1009 NOSIG
WIII 170900Z 05015KT 9000 FEW020 31/22 Q1009 NOSIG
WIII 170830Z 05015KT 9000 FEW020 31/23 Q1009 NOSIG
WIII 170800Z 05013KT 9000 FEW020 32/22 Q1009 NOSIG
WIII 170730Z 05012KT 010V070 9000 FEW020 32/23 Q1009 NOSIG
WIII 170700Z 06012KT 8000 FEW020 32/22 Q1009 NOSIG
WIII 170630Z 07012KT 8000 FEW020 32/22 Q1009 NOSIG
WIII 170600Z 06013KT 8000 FEW020 32/23 Q1010 NOSIG
WIII 170530Z 06013KT 7000 FEW020 32/22 Q1010 NOSIG
WIII 170500Z 06012KT 030V100 7000 FEW020 32/22 Q1011 NOSIG
WIII 170430Z 07011KT 040V110 7000 FEW020 32/23 Q1011 NOSIG
WIII 170400Z 07012KT 040V100 7000 FEW020 31/22 Q1012 NOSIG
WIII 170330Z 06011KT 040V100 7000 FEW020 31/22 Q1012 NOSIG
WIII 170300Z 07011KT 7000 SCT020 31/22 Q1013 NOSIG
WIII 170230Z 10008KT 060V160 7000 BKN019 31/22 Q1013 NOSIG
WIII 170200Z VRB05KT 6000 FEW020 29/22 Q1013 NOSIG
WIII 170130Z VRB05KT 4500 HZ FEW020 29/22 Q1013 NOSIG
WIII 170100Z 14006KT 4000 HZ FEW020 28/22 Q1013 NOSIG
WIII 170030Z 17006KT 4000 HZ FEW020 27/22 Q1013 NOSIG
WIII 170000Z VRB05KT 4000 HZ FEW020 26/22 Q1012 NOSIG
WIII 162330Z VRB03KT 5000 HZ FEW020 26/22 Q1012 NOSIG
WIII 162300Z VRB04KT 5000 HZ FEW020 26/22 Q1011 NOSIG
WIII 162230Z 12006KT 5000 HZ FEW020 26/22 Q1011 NOSIG
WIII 162200Z 12006KT 5000 HZ FEW020 26/22 Q1011 NOSIG
WIII 162130Z 18003KT 6000 FEW020 25/22 Q1011 NOSIG
WIII 162100Z 13004KT 6000 FEW020 25/22 Q1011 NOSIG
WIII 162030Z 13006KT 6000 FEW020 26/22 Q1010 NOSIG
WIII 162000Z 13005KT 6000 FEW020 26/22 Q1010 NOSIG
WIII 161930Z VRB04KT 6000 FEW020 26/22 Q1010 NOSIG
WIII 161900Z 15004KT 6000 FEW020 26/22 Q1010 NOSIG
WIII 161830Z 12007KT 6000 SCT021 26/22 Q1010 NOSIG
WIII 161800Z 12008KT 6000 SCT021 26/22 Q1011 NOSIG
WIII 161730Z 12008KT 6000 SCT020 26/22 Q1011 NOSIG
WIII 161700Z 12009KT 7000 SCT020 26/22 Q1011 NOSIG
WIII 161630Z 12008KT 7000 SCT020 27/22 Q1011 NOSIG
WIII 161600Z 11008KT 7000 SCT020 27/22 Q1012 NOSIG
WIII 161530Z 12010KT 7000 FEW020 27/22 Q1011 NOSIG
WIII 161500Z 12009KT 7000 FEW020 27/22 Q1011 NOSIG
WIII 161430Z 11009KT 7000 FEW020 27/22 Q1011 NOSIG
WIII 161400Z 12008KT 7000 FEW020 27/22 Q1011 NOSIG
WIII 161330Z 09010KT 7000 FEW020 27/22 Q1011 NOSIG
WIII 161300Z 08010KT 7000 FEW020 27/22 Q1010 NOSIG
WIII 161230Z 09013KT 7000 FEW020 27/22 Q1010 NOSIG
WIII 161200Z 08012KT 7000 FEW020 27/23 Q1010 NOSIG
WIII 161130Z 07011KT 7000 FEW020 28/23 Q1009 NOSIG
WIII 161100Z 07011KT 7000 FEW020 28/23 Q1009 NOSIG
WIII 161030Z 06013KT 7000 FEW020 29/23 Q1008 NOSIG
WIII 161000Z 07012KT 6000 FEW020 29/23 Q1008 NOSIG
WIII 160930Z 07014KT 7000 FEW020 30/23 Q1008 NOSIG
WIII 160900Z 06013KT 7000 FEW020 31/22 Q1008 NOSIG
WIII 160830Z 06016KT 9000 FEW020 31/22 Q1008 NOSIG
WIII 160800Z 06017KT 8000 FEW020 32/22 Q1008 NOSIG
WIII 160730Z 05017KT 8000 FEW020 32/22 Q1008 NOSIG
WIII 160700Z 05017KT 020V090 8000 FEW020 32/23 Q1008 NOSIG
WIII 160630Z 06014KT 8000 FEW020 32/23 Q1009 NOSIG
WIII 160600Z 06015KT 8000 FEW020 32/23 Q1009 NOSIG
WIII 160530Z 05014KT 8000 SCT020 32/23 Q1010 NOSIG
WIII 160500Z 06012G18KT 8000 SCT020 32/23 Q1010 NOSIG
WIII 160430Z 06012KT 8000 SCT020 32/22 Q1010 NOSIG
WIII 160400Z 06012KT 7000 SCT020 32/22 Q1011 NOSIG
WIII 160330Z 07006G16KT 050V110 7000 SCT020 31/22 Q1011 NOSIG
WIII 160300Z 09008KT 050V120 6000 SCT020 30/22 Q1012 NOSIG
WIII 160230Z 08006KT 5000 HZ SCT020 30/22 Q1012 NOSIG
WIII 160200Z 09009KT 5000 HZ SCT020 29/23 Q1012 NOSIG
WIII 160130Z VRB04KT 5000 HZ FEW020 28/22 Q1012 NOSIG
WIII 160100Z VRB04KT 5000 HZ FEW020 28/22 Q1012 NOSIG
WIII 160030Z VRB04KT 5000 HZ FEW020 27/23 Q1011 NOSIG
WIII 160000Z 16005KT 3500 BR FEW021 26/23 Q1011 NOSIG
WIII 152330Z VRB03KT 3500 BR FEW020 25/22 Q1011 NOSIG
WIII 152300Z 17005KT 3500 BR FEW020 24/22 Q1011 NOSIG
WIII 152230Z 18007KT 4000 BR SCT020 24/22 Q1011 NOSIG
WIII 152200Z 17004KT 4000 BR SCT020 25/22 Q1011 NOSIG
WIII 152130Z 16005KT 5000 SCT020 25/22 Q1010 RERA NOSIG
WIII 152100Z 20003KT 5000 -RA BKN019 24/22 Q1010 NOSIG
WIII 152030Z VRB03KT 5000 -RA SCT019 25/22 Q1010 NOSIG
WIII 152000Z VRB04KT 5000 -RA SCT019 25/22 Q1010 NOSIG
WIII 151930Z VRB05KT 3600 -RA BKN018 25/22 Q1010 NOSIG
WIII 151900Z 21005KT 3000 RA BKN018 25/23 Q1010 NOSIG
WIII 151830Z 00000KT 3000 RA BKN018 25/23 Q1010 NOSIG
WIII 151800Z VRB05KT 3500 -RA BKN018 26/23 Q1010 NOSIG
WIII 151730Z 24002KT 4400 HZ FEW021 27/21 Q1011 NOSIG
WIII 151700Z VRB02KT 4600 HZ FEW021 27/21 Q1011 NOSIG
WIII 151630Z VRB02KT 4500 HZ SCT020 27/22 Q1011 NOSIG
WIII 151600Z 29003KT 4500 HZ SCT020 27/22 Q1011 NOSIG
WIII 151530Z 31003KT 5000 HZ FEW020 26/22 Q1011 NOSIG
WIII 151430Z 30003KT 5000 HZ FEW020 26/21 Q1011 NOSIG
WIII 151400Z 29004KT 5000 HZ FEW020 26/21 Q1011 NOSIG
WIII 151330Z 28002KT 6000 FEW020 27/22 Q1011 NOSIG
WIII 151300Z 32002KT 6000 FEW020 28/22 Q1011 NOSIG
WIII 151230Z VRB03KT 6000 FEW020 28/22 Q1010 NOSIG
WIII 151200Z 03004KT 7000 FEW020 28/22 Q1010 NOSIG
WIII 151130Z 04005KT 8000 FEW020 28/22 Q1010 NOSIG